Wetterdaten: Woche 10.02.14 - 16.02.14 (KW7)
Datum Zeit Temp. A. Feuchte A. Luftdruck Regen Wind Richtung Taupunkt Windchill Windben
10.02.2014 00:00 6,1 C 64 % 1005,2 hPa 0,0 l/m 10,6 km/h N -0,3 C 2,9 C 27,0 km/h
10.02.2014 01:00 5,6 C 64 % 1005,4 hPa 0,0 l/m 10,7 km/h N -0,7 C 2,3 C 31,4 km/h
10.02.2014 02:00 4,1 C 68 % 1006,0 hPa 0,0 l/m 0,6 km/h N -1,3 C 4,1 C 4,4 km/h
10.02.2014 03:00 0,8 C 76 % 1006,3 hPa 0,0 l/m 0,2 km/h N -3,0 C 0,8 C 3,2 km/h
10.02.2014 04:00 0,1 C 82 % 1006,9 hPa 0,0 l/m 1,1 km/h N -2,6 C 0,1 C 5,6 km/h
10.02.2014 05:00 0,3 C 81 % 1007,0 hPa 0,0 l/m 0,5 km/h N -2,6 C 0,3 C 2,8 km/h
10.02.2014 06:00 -1,2 C 82 % 1007,1 hPa 0,0 l/m 0,2 km/h N -3,9 C -1,2 C 2,0 km/h
10.02.2014 07:00 -1,9 C 84 % 1007,2 hPa 0,0 l/m 0,3 km/h N -4,3 C -1,9 C 4,0 km/h
10.02.2014 08:00 -0,6 C 86 % 1007,1 hPa 0,0 l/m 0,5 km/h N -2,7 C -0,6 C 3,6 km/h
10.02.2014 09:00 2,5 C 82 % 1006,8 hPa 0,0 l/m 0,3 km/h N -0,2 C 2,5 C 3,2 km/h
10.02.2014 10:00 4,4 C 75 % 1006,2 hPa 0,0 l/m 1,2 km/h N 0,3 C 4,4 C 6,4 km/h
10.02.2014 11:00 5,9 C 69 % 1005,0 hPa 0,0 l/m 3,9 km/h N 0,6 C 5,9 C 12,9 km/h
10.02.2014 12:00 6,3 C 73 % 1003,6 hPa 0,0 l/m 8,8 km/h N 1,8 C 4,2 C 20,9 km/h
10.02.2014 13:00 6,7 C 72 % 1002,4 hPa 0,0 l/m 9,1 km/h N 1,9 C 4,6 C 21,7 km/h
10.02.2014 14:00 7,9 C 67 % 1001,5 hPa 0,0 l/m 9,6 km/h N 2,2 C 5,7 C 24,1 km/h
10.02.2014 15:00 7,2 C 72 % 1001,1 hPa 0,0 l/m 9,3 km/h N 2,5 C 5,0 C 24,5 km/h
10.02.2014 16:00 6,9 C 74 % 1000,4 hPa 0,0 l/m 9,8 km/h N 2,5 C 4,3 C 22,9 km/h
10.02.2014 17:00 6,8 C 75 % 1000,3 hPa 0,0 l/m 10,5 km/h N 2,6 C 3,8 C 27,3 km/h
10.02.2014 18:00 6,9 C 78 % 1000,4 hPa 0,0 l/m 10,4 km/h N 3,2 C 4,0 C 30,6 km/h
10.02.2014 19:00 7,1 C 78 % 999,7 hPa 0,3 l/m 13,9 km/h N 3,5 C 2,2 C 32,6 km/h
10.02.2014 20:00 7,3 C 78 % 999,4 hPa 0,0 l/m 10,9 km/h N 3,7 C 4,1 C 30,6 km/h
10.02.2014 21:00 7,7 C 76 % 999,5 hPa 0,0 l/m 9,5 km/h N 3,6 C 5,4 C 26,2 km/h
10.02.2014 22:00 7,9 C 75 % 999,6 hPa 0,0 l/m 9,7 km/h N 3,7 C 5,4 C 23,7 km/h
10.02.2014 23:00 8,1 C 75 % 999,5 hPa 0,0 l/m 9,3 km/h N 3,9 C 5,9 C 26,1 km/h
11.02.2014 00:00 8,0 C 77 % 999,9 hPa 0,0 l/m 11,8 km/h N 4,2 C 4,3 C 29,4 km/h
11.02.2014 01:00 7,3 C 82 % 1000,2 hPa 0,5 l/m 8,6 km/h N 4,4 C 5,7 C 23,3 km/h
11.02.2014 02:00 7,1 C 82 % 1000,2 hPa 0,0 l/m 12,0 km/h N 4,3 C 3,2 C 31,8 km/h
11.02.2014 03:00 7,2 C 82 % 1000,2 hPa 0,0 l/m 9,9 km/h N 4,3 C 4,6 C 24,1 km/h
11.02.2014 04:00 7,1 C 82 % 1001,1 hPa 0,0 l/m 5,4 km/h N 4,3 C 6,6 C 16,1 km/h
11.02.2014 05:00 6,8 C 83 % 1002,2 hPa 0,0 l/m 1,7 km/h N 4,1 C 6,8 C 6,9 km/h
11.02.2014 06:00 6,2 C 83 % 1002,8 hPa 0,0 l/m 0,8 km/h N 3,5 C 6,2 C 5,6 km/h
11.02.2014 07:00 7,5 C 81 % 1004,0 hPa 0,0 l/m 9,4 km/h N 4,4 C 5,3 C 22,9 km/h
11.02.2014 08:00 7,8 C 79 % 1005,0 hPa 0,0 l/m 7,9 km/h N 4,4 C 6,6 C 21,3 km/h
11.02.2014 09:00 7,6 C 77 % 1005,7 hPa 0,0 l/m 12,3 km/h N 3,8 C 3,7 C 30,6 km/h
11.02.2014 10:00 7,8 C 75 % 1006,3 hPa 0,0 l/m 17,0 km/h N 3,6 C 1,5 C 35,8 km/h
11.02.2014 11:00 7,7 C 73 % 1007,2 hPa 0,0 l/m 10,5 km/h N 3,1 C 4,8 C 29,4 km/h
11.02.2014 12:00 8,0 C 68 % 1007,6 hPa 0,0 l/m 9,3 km/h N 2,5 C 5,7 C 28,2 km/h
11.02.2014 13:00 8,4 C 65 % 1007,5 hPa 0,0 l/m 8,9 km/h N 2,2 C 6,6 C 24,1 km/h
11.02.2014 14:00 8,6 C 64 % 1007,2 hPa 0,0 l/m 7,4 km/h N 2,2 C 7,8 C 20,5 km/h
11.02.2014 15:00 8,1 C 65 % 1007,6 hPa 0,0 l/m 7,5 km/h N 1,9 C 7,1 C 19,7 km/h
11.02.2014 16:00 7,6 C 67 % 1008,1 hPa 0,0 l/m 3,1 km/h N 1,8 C 7,6 C 12,1 km/h
11.02.2014 17:00 7,1 C 68 % 1008,3 hPa 0,0 l/m 0,3 km/h N 1,5 C 7,1 C 2,4 km/h
11.02.2014 18:00 5,7 C 72 % 1008,7 hPa 0,0 l/m 0,2 km/h N 1,0 C 5,7 C 1,2 km/h
11.02.2014 19:00 4,8 C 77 % 1008,7 hPa 0,0 l/m 0,1 km/h N 1,1 C 4,8 C 2,0 km/h
11.02.2014 20:00 4,3 C 80 % 1008,7 hPa 0,0 l/m 0,0 km/h N 1,1 C 4,3 C 0,4 km/h
11.02.2014 21:00 4,1 C 82 % 1008,8 hPa 0,0 l/m 0,1 km/h N 1,2 C 4,1 C 1,2 km/h
11.02.2014 22:00 4,2 C 83 % 1008,7 hPa 0,0 l/m 0,0 km/h N 1,5 C 4,2 C 0,4 km/h
11.02.2014 23:00 4,3 C 83 % 1008,2 hPa 0,0 l/m 0,0 km/h N 1,6 C 4,3 C 0,0 km/h
12.02.2014 00:00 4,0 C 82 % 1008,2 hPa 0,0 l/m 0,0 km/h N 1,2 C 4,0 C 0,0 km/h
12.02.2014 01:00 3,0 C 83 % 1007,7 hPa 0,0 l/m 0,0 km/h N 0,4 C 3,0 C 0,4 km/h
12.02.2014 02:00 3,0 C 85 % 1007,3 hPa 0,0 l/m 0,0 km/h N 0,7 C 3,0 C 0,0 km/h
12.02.2014 03:00 3,5 C 86 % 1006,9 hPa 0,5 l/m 0,0 km/h N 1,3 C 3,5 C 0,4 km/h
12.02.2014 04:00 3,6 C 85 % 1006,4 hPa 0,8 l/m 0,1 km/h N 1,4 C 3,6 C 1,2 km/h
12.02.2014 05:00 3,7 C 85 % 1006,7 hPa 2,1 l/m 0,2 km/h N 1,4 C 3,7 C 1,6 km/h
12.02.2014 06:00 3,0 C 86 % 1007,7 hPa 3,9 l/m 0,4 km/h N 0,8 C 3,0 C 3,2 km/h
12.02.2014 07:00 1,3 C 86 % 1008,3 hPa 2,9 l/m 1,4 km/h N -0,8 C 1,3 C 5,6 km/h
12.02.2014 08:00 1,4 C 85 % 1008,7 hPa 2,6 l/m 3,4 km/h N -1,0 C 1,4 C 10,1 km/h
12.02.2014 09:00 2,2 C 83 % 1009,1 hPa 1,0 l/m 6,0 km/h N -0,3 C 1,9 C 16,9 km/h
12.02.2014 10:00 2,6 C 84 % 1009,6 hPa 0,5 l/m 5,6 km/h N 0,1 C 2,4 C 14,1 km/h
12.02.2014 11:00 3,2 C 84 % 1009,7 hPa 0,0 l/m 7,8 km/h N 0,8 C 1,9 C 18,9 km/h
12.02.2014 12:00 4,9 C 85 % 1009,5 hPa 0,0 l/m 8,3 km/h N 2,5 C 3,2 C 20,1 km/h
12.02.2014 13:00 6,2 C 80 % 1009,2 hPa 0,0 l/m 8,6 km/h N 3,0 C 4,4 C 19,3 km/h
12.02.2014 14:00 6,5 C 78 % 1009,0 hPa 0,0 l/m 9,4 km/h N 2,9 C 4,1 C 20,9 km/h
12.02.2014 15:00 6,3 C 74 % 1009,5 hPa 0,0 l/m 10,9 km/h N 1,9 C 3,0 C 23,7 km/h
12.02.2014 16:00 6,2 C 72 % 1010,1 hPa 0,0 l/m 11,3 km/h N 1,4 C 2,5 C 25,3 km/h
12.02.2014 17:00 6,3 C 72 % 1010,5 hPa 0,0 l/m 11,8 km/h N 1,6 C 2,3 C 26,9 km/h
12.02.2014 18:00 6,1 C 72 % 1010,9 hPa 0,0 l/m 13,5 km/h N 1,5 C 1,2 C 29,0 km/h
12.02.2014 19:00 5,8 C 73 % 1011,3 hPa 0,0 l/m 12,2 km/h N 1,2 C 1,6 C 29,4 km/h
12.02.2014 20:00 5,2 C 73 % 1011,4 hPa 0,0 l/m 8,4 km/h N 0,8 C 3,5 C 22,5 km/h
12.02.2014 21:00 4,3 C 75 % 1011,3 hPa 0,0 l/m 7,9 km/h N 0,2 C 3,0 C 18,5 km/h
12.02.2014 22:00 3,3 C 76 % 1011,4 hPa 0,0 l/m 2,3 km/h N -0,4 C 3,3 C 8,0 km/h
12.02.2014 23:00 2,6 C 79 % 1011,4 hPa 0,0 l/m 0,8 km/h N -0,7 C 2,6 C 4,8 km/h
13.02.2014 00:00 1,3 C 80 % 1011,2 hPa 0,0 l/m 0,1 km/h N -1,9 C 1,3 C 2,4 km/h
13.02.2014 01:00 -0,8 C 83 % 1010,8 hPa 0,3 l/m 0,0 km/h N -3,3 C -0,8 C 1,6 km/h
13.02.2014 02:00 -2,0 C 85 % 1010,4 hPa 0,0 l/m 0,0 km/h N -4,2 C -2,0 C 0,8 km/h
13.02.2014 03:00 -2,3 C 86 % 1010,3 hPa 0,0 l/m 0,0 km/h N -4,3 C -2,3 C 0,4 km/h
13.02.2014 04:00 -2,8 C 86 % 1009,9 hPa 0,0 l/m 0,1 km/h N -4,8 C -2,8 C 0,8 km/h
13.02.2014 05:00 -3,2 C 86 % 1009,8 hPa 0,0 l/m 0,0 km/h N -5,2 C -3,2 C 0,4 km/h
13.02.2014 06:00 -4,0 C 86 % 1009,8 hPa 0,0 l/m 0,1 km/h N -6,0 C -4,0 C 1,2 km/h
13.02.2014 07:00 -4,0 C 86 % 1010,3 hPa 0,0 l/m 0,2 km/h N -6,0 C -4,0 C 2,0 km/h
13.02.2014 08:00 -2,4 C 84 % 1010,0 hPa 0,0 l/m 0,0 km/h N -4,8 C -2,4 C 0,4 km/h
13.02.2014 09:00 0,8 C 83 % 1009,2 hPa 0,0 l/m 0,2 km/h N -1,8 C 0,8 C 2,4 km/h
13.02.2014 10:00 2,2 C 85 % 1008,0 hPa 0,0 l/m 0,8 km/h N -0,2 C 2,2 C 4,4 km/h
13.02.2014 11:00 4,8 C 72 % 1007,5 hPa 0,0 l/m 0,6 km/h N -0,0 C 4,8 C 5,2 km/h
13.02.2014 12:00 6,9 C 62 % 1006,5 hPa 0,0 l/m 5,1 km/h N 0,2 C 6,9 C 12,9 km/h
13.02.2014 13:00 8,3 C 58 % 1005,2 hPa 0,0 l/m 6,4 km/h N 0,5 C 8,2 C 15,7 km/h
13.02.2014 14:00 8,7 C 65 % 1004,3 hPa 0,0 l/m 7,6 km/h N 2,6 C 7,8 C 18,9 km/h
13.02.2014 15:00 7,8 C 70 % 1003,3 hPa 0,0 l/m 4,7 km/h N 2,6 C 7,8 C 15,3 km/h
13.02.2014 16:00 6,5 C 74 % 1002,1 hPa 0,0 l/m 5,3 km/h N 2,3 C 6,4 C 15,3 km/h
13.02.2014 17:00 5,3 C 80 % 1000,8 hPa 0,0 l/m 5,6 km/h N 2,1 C 4,8 C 17,3 km/h
13.02.2014 18:00 5,1 C 81 % 1000,3 hPa 0,0 l/m 1,5 km/h N 2,1 C 5,1 C 10,0 km/h
13.02.2014 19:00 4,9 C 80 % 999,9 hPa 0,0 l/m 1,0 km/h N 1,7 C 4,9 C 6,0 km/h
13.02.2014 20:00 4,9 C 80 % 999,9 hPa 0,0 l/m 0,0 km/h N 1,7 C 4,9 C 0,4 km/h
13.02.2014 21:00 4,3 C 82 % 1000,6 hPa 0,0 l/m 0,3 km/h N 1,5 C 4,3 C 2,8 km/h
13.02.2014 22:00 5,5 C 78 % 1001,5 hPa 0,0 l/m 4,8 km/h N 2,0 C 4,5 C 15,3 km/h
13.02.2014 23:00 9,2 C 64 % 1000,7 hPa 0,0 l/m 12,5 km/h N 2,7 C 5,4 C 36,2 km/h
14.02.2014 00:00 9,9 C 57 % 1001,5 hPa 0,0 l/m 7,5 km/h N 1,8 C 9,1 C 22,5 km/h
14.02.2014 01:00 9,8 C 56 % 1002,4 hPa 0,0 l/m 10,2 km/h N 1,4 C 7,3 C 29,8 km/h
14.02.2014 02:00 9,1 C 58 % 1003,3 hPa 0,0 l/m 15,1 km/h N 1,2 C 4,1 C 40,3 km/h
14.02.2014 03:00 8,6 C 60 % 1003,6 hPa 0,0 l/m 18,8 km/h N 1,2 C 2,0 C 43,5 km/h
14.02.2014 04:00 8,2 C 60 % 1004,8 hPa 0,0 l/m 19,0 km/h N 0,9 C 1,3 C 43,0 km/h
14.02.2014 05:00 7,7 C 60 % 1005,8 hPa 0,0 l/m 19,8 km/h N 0,5 C 0,4 C 42,3 km/h
14.02.2014 06:00 7,3 C 60 % 1006,9 hPa 0,0 l/m 19,9 km/h N -0,1 C -0,2 C 41,4 km/h
14.02.2014 07:00 6,9 C 57 % 1008,3 hPa 0,0 l/m 19,8 km/h N -1,0 C -0,7 C 42,3 km/h
14.02.2014 08:00 6,4 C 62 % 1009,4 hPa 0,0 l/m 19,3 km/h N -0,4 C -1,1 C 39,4 km/h
14.02.2014 09:00 6,4 C 61 % 1010,6 hPa 0,0 l/m 20,8 km/h N -0,6 C -1,6 C 43,9 km/h
14.02.2014 10:00 6,5 C 61 % 1011,8 hPa 0,0 l/m 16,0 km/h N -0,5 C 0,4 C 37,0 km/h
14.02.2014 11:00 6,6 C 61 % 1012,2 hPa 0,0 l/m 15,1 km/h N -0,3 C 1,0 C 31,8 km/h
14.02.2014 12:00 7,3 C 57 % 1012,2 hPa 0,0 l/m 16,3 km/h N -0,7 C 1,3 C 35,4 km/h
14.02.2014 13:00 9,1 C 50 % 1012,3 hPa 0,0 l/m 12,9 km/h N -0,7 C 5,0 C 31,0 km/h
14.02.2014 14:00 9,4 C 45 % 1012,3 hPa 0,0 l/m 11,3 km/h N -1,8 C 6,2 C 27,8 km/h
14.02.2014 15:00 9,3 C 45 % 1012,9 hPa 0,0 l/m 9,8 km/h N -2,0 C 6,9 C 25,3 km/h
14.02.2014 16:00 8,6 C 45 % 1013,2 hPa 0,0 l/m 7,4 km/h N -2,7 C 7,9 C 19,7 km/h
14.02.2014 17:00 7,5 C 48 % 1013,7 hPa 0,0 l/m 1,9 km/h N -2,8 C 7,5 C 8,8 km/h
14.02.2014 18:00 4,8 C 55 % 1014,3 hPa 0,0 l/m 0,2 km/h N -3,4 C 4,8 C 2,0 km/h
14.02.2014 19:00 2,1 C 65 % 1014,8 hPa 0,0 l/m 0,2 km/h N -3,9 C 2,1 C 2,8 km/h
14.02.2014 20:00 1,1 C 71 % 1014,9 hPa 0,0 l/m 0,3 km/h N -3,6 C 1,1 C 2,4 km/h
14.02.2014 21:00 0,4 C 72 % 1014,7 hPa 0,0 l/m 0,0 km/h N -4,1 C 0,4 C 0,4 km/h
14.02.2014 22:00 0,1 C 76 % 1014,4 hPa 0,0 l/m 0,2 km/h N -3,6 C 0,1 C 3,2 km/h
14.02.2014 23:00 0,6 C 75 % 1014,2 hPa 0,0 l/m 0,1 km/h N -3,4 C 0,6 C 2,0 km/h
15.02.2014 00:00 -0,2 C 76 % 1013,1 hPa 0,0 l/m 0,1 km/h N -4,0 C -0,2 C 2,0 km/h
15.02.2014 01:00 -0,7 C 80 % 1012,4 hPa 0,0 l/m 0,3 km/h N -3,7 C -0,7 C 2,8 km/h
15.02.2014 02:00 -0,8 C 81 % 1011,9 hPa 0,0 l/m 0,0 km/h N -3,6 C -0,8 C 0,0 km/h
15.02.2014 03:00 -0,6 C 84 % 1010,7 hPa 0,0 l/m 0,0 km/h N -3,0 C -0,6 C 0,8 km/h
15.02.2014 04:00 -0,2 C 85 % 1010,1 hPa 0,0 l/m 0,1 km/h N -2,4 C -0,2 C 1,2 km/h
15.02.2014 05:00 0,3 C 86 % 1009,8 hPa 0,0 l/m 0,3 km/h N -1,9 C 0,3 C 2,0 km/h
15.02.2014 06:00 0,8 C 85 % 1010,0 hPa 0,0 l/m 0,4 km/h N -1,4 C 0,8 C 2,8 km/h
15.02.2014 07:00 1,8 C 85 % 1010,3 hPa 0,0 l/m 1,1 km/h N -0,6 C 1,8 C 6,0 km/h
15.02.2014 08:00 2,2 C 85 % 1010,4 hPa 0,0 l/m 0,7 km/h N -0,1 C 2,2 C 4,0 km/h
15.02.2014 09:00 4,6 C 82 % 1010,1 hPa 0,0 l/m 5,7 km/h N 1,7 C 4,5 C 14,9 km/h
15.02.2014 10:00 7,0 C 70 % 1009,9 hPa 0,0 l/m 6,1 km/h N 1,9 C 6,8 C 18,1 km/h
15.02.2014 11:00 8,1 C 66 % 1009,7 hPa 0,0 l/m 6,6 km/h N 2,0 C 7,6 C 17,7 km/h
15.02.2014 12:00 8,6 C 65 % 1009,3 hPa 0,0 l/m 6,8 km/h N 2,3 C 8,0 C 22,9 km/h
15.02.2014 13:00 9,8 C 61 % 1008,6 hPa 0,0 l/m 6,4 km/h N 2,7 C 9,6 C 22,1 km/h
15.02.2014 14:00 10,2 C 62 % 1008,1 hPa 0,0 l/m 6,6 km/h N 3,2 C 9,7 C 22,9 km/h
15.02.2014 15:00 10,0 C 64 % 1007,4 hPa 0,0 l/m 4,8 km/h N 3,5 C 10,0 C 18,1 km/h
15.02.2014 16:00 10,0 C 63 % 1006,7 hPa 0,0 l/m 4,5 km/h N 3,3 C 10,0 C 18,5 km/h
15.02.2014 17:00 9,3 C 65 % 1006,4 hPa 0,0 l/m 3,9 km/h N 3,0 C 9,3 C 14,5 km/h
15.02.2014 18:00 7,9 C 69 % 1006,7 hPa 0,0 l/m 2,4 km/h N 2,5 C 7,9 C 8,9 km/h
15.02.2014 19:00 6,2 C 71 % 1006,7 hPa 0,0 l/m 0,1 km/h N 1,3 C 6,2 C 1,6 km/h
15.02.2014 20:00 3,0 C 78 % 1006,7 hPa 0,0 l/m 0,0 km/h N -0,5 C 3,0 C 0,8 km/h
15.02.2014 21:00 1,8 C 83 % 1006,6 hPa 0,0 l/m 0,0 km/h N -0,9 C 1,8 C 0,0 km/h
15.02.2014 22:00 0,8 C 84 % 1007,0 hPa 0,0 l/m 0,0 km/h N -1,5 C 0,8 C 1,6 km/h
15.02.2014 23:00 1,2 C 85 % 1007,5 hPa 0,0 l/m 0,4 km/h N -1,0 C 1,2 C 3,2 km/h
16.02.2014 00:00 0,7 C 86 % 1008,4 hPa 0,0 l/m 0,1 km/h N -1,4 C 0,7 C 0,4 km/h
16.02.2014 01:00 -0,5 C 86 % 1009,2 hPa 0,0 l/m 0,1 km/h N -2,5 C -0,5 C 1,2 km/h
16.02.2014 02:00 2,3 C 84 % 1010,2 hPa 0,0 l/m 4,8 km/h N -0,1 C 2,3 C 14,1 km/h
16.02.2014 03:00 4,9 C 83 % 1010,2 hPa 0,0 l/m 3,2 km/h N 2,2 C 4,9 C 10,5 km/h
16.02.2014 04:00 5,9 C 76 % 1010,8 hPa 0,0 l/m 1,2 km/h N 2,0 C 5,9 C 6,8 km/h
16.02.2014 05:00 3,1 C 79 % 1011,7 hPa 0,0 l/m 0,4 km/h N -0,3 C 3,1 C 4,0 km/h
16.02.2014 06:00 5,3 C 84 % 1012,2 hPa 0,0 l/m 1,8 km/h N 2,8 C 5,3 C 10,1 km/h
16.02.2014 07:00 5,8 C 83 % 1013,1 hPa 0,0 l/m 0,3 km/h N 3,2 C 5,8 C 4,8 km/h
16.02.2014 08:00 7,8 C 79 % 1013,7 hPa 0,0 l/m 3,0 km/h N 4,3 C 7,8 C 16,9 km/h
16.02.2014 09:00 8,8 C 72 % 1013,9 hPa 0,0 l/m 5,4 km/h N 4,0 C 8,8 C 19,3 km/h
16.02.2014 10:00 9,6 C 68 % 1014,0 hPa 0,0 l/m 6,8 km/h N 4,0 C 8,8 C 22,5 km/h
16.02.2014 11:00 9,8 C 66 % 1014,8 hPa 0,0 l/m 3,1 km/h N 3,7 C 9,8 C 12,5 km/h
16.02.2014 12:00 9,5 C 66 % 1015,0 hPa 0,0 l/m 2,6 km/h N 3,5 C 9,5 C 10,0 km/h
16.02.2014 13:00 9,2 C 67 % 1014,9 hPa 0,0 l/m 3,1 km/h N 3,5 C 9,2 C 13,7 km/h
16.02.2014 14:00 8,7 C 68 % 1014,6 hPa 0,0 l/m 2,6 km/h N 3,1 C 8,7 C 12,1 km/h
16.02.2014 15:00 8,4 C 69 % 1014,5 hPa 0,0 l/m 6,0 km/h N 3,0 C 8,0 C 20,1 km/h
16.02.2014 16:00 8,1 C 68 % 1014,7 hPa 0,0 l/m 9,9 km/h N 2,6 C 5,6 C 25,3 km/h
16.02.2014 17:00 7,6 C 68 % 1015,5 hPa 0,0 l/m 15,3 km/h N 2,0 C 2,1 C 35,0 km/h
16.02.2014 18:00 6,8 C 74 % 1015,9 hPa 0,0 l/m 12,4 km/h N 2,4 C 2,6 C 31,0 km/h
16.02.2014 19:00 6,4 C 74 % 1015,9 hPa 0,0 l/m 10,5 km/h N 2,2 C 3,3 C 24,9 km/h
16.02.2014 20:00 6,3 C 75 % 1016,1 hPa 0,0 l/m 7,5 km/h N 2,2 C 5,4 C 20,5 km/h
16.02.2014 21:00 6,4 C 73 % 1016,3 hPa 0,0 l/m 7,1 km/h N 2,0 C 5,4 C 21,3 km/h
16.02.2014 22:00 6,4 C 73 % 1015,8 hPa 0,0 l/m 1,8 km/h N 1,9 C 6,4 C 11,7 km/h
16.02.2014 23:00 6,0 C 74 % 1016,0 hPa 0,0 l/m 0,2 km/h N 1,7 C 6,0 C 3,2 km/h
Min-Datum _ 13.02.14 14.02.14 10.02.14 - 10.02.14 - 13.02.14 13.02.14 10.02.14
_ Min-Zeit 06:45 14:30 20:15 - 02:30 - 07:00 07:00 05:45
Minimum _ -4,2 C 44 % 999,3 hPa - 0,0 km/h - -6,3 C -4,3 C 0,0 km/h
Max-Datum _ 15.02.14 10.02.14 16.02.14 12.02.14 14.02.14 - 11.02.14 15.02.14 14.02.14
_ Max-Zeit 14:30 08:15 21:00 06:30 09:15 - 08:15 14:45 04:30
Maximum _ 10,6 C 86 % 1016,5 hPa 3,9 l/m 23,4 km/h
N
- 4,6 C 10,1 C 51,5 km/h
N
Durchschnitt _ 5,0 C 74 % 1008,1 hPa #15,3 l/m 5,4 km/h N 0,7 C 3,7 C 14,8 km/h